sensor_id;sensor_type;location;lat;lon;timestamp;P1;durP1;ratioP1;P2;durP2;ratioP2
9280;SDS011;4679;47.966;7.958;2023-04-10T06:10:55;1.40;;;1.30;;
9280;SDS011;4679;47.966;7.958;2023-04-10T06:12:57;1.90;;;1.53;;
9280;SDS011;4679;47.966;7.958;2023-04-10T06:14:59;1.40;;;1.30;;
9280;SDS011;4679;47.966;7.958;2023-04-10T06:17:01;1.47;;;1.37;;
9280;SDS011;4679;47.966;7.958;2023-04-10T06:19:03;1.87;;;1.47;;
9280;SDS011;4679;47.966;7.958;2023-04-10T06:21:04;3.63;;;2.23;;
9280;SDS011;4679;47.966;7.958;2023-04-10T06:23:06;3.17;;;2.10;;
9280;SDS011;4679;47.966;7.958;2023-04-10T06:27:10;1.80;;;1.30;;
9280;SDS011;4679;47.966;7.958;2023-04-10T06:29:11;2.40;;;1.30;;
9280;SDS011;4679;47.966;7.958;2023-04-10T06:31:13;1.50;;;1.13;;
9280;SDS011;4679;47.966;7.958;2023-04-10T06:33:15;1.90;;;1.30;;
9280;SDS011;4679;47.966;7.958;2023-04-10T06:35:16;1.20;;;1.10;;
9280;SDS011;4679;47.966;7.958;2023-04-10T06:37:18;1.20;;;1.10;;
9280;SDS011;4679;47.966;7.958;2023-04-10T06:39:20;0.97;;;0.90;;
9280;SDS011;4679;47.966;7.958;2023-04-10T06:41:21;1.10;;;1.00;;
9280;SDS011;4679;47.966;7.958;2023-04-10T06:43:24;1.37;;;1.20;;
9280;SDS011;4679;47.966;7.958;2023-04-10T06:45:27;0.93;;;0.90;;
9280;SDS011;4679;47.966;7.958;2023-04-10T06:47:28;0.80;;;0.80;;
9280;SDS011;4679;47.966;7.958;2023-04-10T06:49:31;1.00;;;0.90;;
9280;SDS011;4679;47.966;7.958;2023-04-10T06:51:32;1.10;;;1.00;;
9280;SDS011;4679;47.966;7.958;2023-04-10T06:53:34;1.23;;;0.90;;
9280;SDS011;4679;47.966;7.958;2023-04-10T06:55:36;0.93;;;0.90;;
9280;SDS011;4679;47.966;7.958;2023-04-10T06:57:37;0.70;;;0.70;;
9280;SDS011;4679;47.966;7.958;2023-04-10T06:59:41;1.00;;;0.90;;
9280;SDS011;4679;47.966;7.958;2023-04-10T07:01:42;1.40;;;0.70;;
9280;SDS011;4679;47.966;7.958;2023-04-10T07:03:44;0.80;;;0.80;;
9280;SDS011;4679;47.966;7.958;2023-04-10T07:05:46;2.20;;;0.90;;
9280;SDS011;4679;47.966;7.958;2023-04-10T07:07:47;0.70;;;0.70;;
9280;SDS011;4679;47.966;7.958;2023-04-10T07:09:49;1.37;;;0.80;;
9280;SDS011;4679;47.966;7.958;2023-04-10T07:11:51;0.80;;;0.80;;
9280;SDS011;4679;47.966;7.958;2023-04-10T07:13:53;1.20;;;1.10;;
9280;SDS011;4679;47.966;7.958;2023-04-10T07:15:58;0.90;;;0.90;;
9280;SDS011;4679;47.966;7.958;2023-04-10T07:18:00;1.40;;;1.00;;
9280;SDS011;4679;47.966;7.958;2023-04-10T07:20:02;2.37;;;1.20;;
9280;SDS011;4679;47.966;7.958;2023-04-10T07:22:04;3.20;;;1.53;;
9280;SDS011;4679;47.966;7.958;2023-04-10T07:24:07;3.00;;;1.60;;
9280;SDS011;4679;47.966;7.958;2023-04-10T07:26:08;0.90;;;0.90;;
9280;SDS011;4679;47.966;7.958;2023-04-10T07:28:10;1.63;;;1.00;;
9280;SDS011;4679;47.966;7.958;2023-04-10T07:30:12;1.87;;;1.47;;
9280;SDS011;4679;47.966;7.958;2023-04-10T07:32:15;1.30;;;1.20;;
9280;SDS011;4679;47.966;7.958;2023-04-10T07:34:17;1.30;;;1.20;;
9280;SDS011;4679;47.966;7.958;2023-04-10T07:36:19;1.27;;;1.17;;
9280;SDS011;4679;47.966;7.958;2023-04-10T07:38:20;1.70;;;1.60;;
9280;SDS011;4679;47.966;7.958;2023-04-10T07:40:23;2.20;;;1.83;;
9280;SDS011;4679;47.966;7.958;2023-04-10T07:42:25;2.10;;;1.50;;
9280;SDS011;4679;47.966;7.958;2023-04-10T07:44:26;1.60;;;1.50;;
9280;SDS011;4679;47.966;7.958;2023-04-10T07:46:28;1.67;;;1.57;;
9280;SDS011;4679;47.966;7.958;2023-04-10T07:48:31;1.90;;;1.70;;
9280;SDS011;4679;47.966;7.958;2023-04-10T07:50:33;2.33;;;2.07;;
9280;SDS011;4679;47.966;7.958;2023-04-10T07:52:35;2.10;;;1.90;;
9280;SDS011;4679;47.966;7.958;2023-04-10T07:54:37;2.00;;;1.73;;
9280;SDS011;4679;47.966;7.958;2023-04-10T07:56:38;1.53;;;1.43;;
9280;SDS011;4679;47.966;7.958;2023-04-10T07:58:40;1.70;;;1.60;;
9280;SDS011;4679;47.966;7.958;2023-04-10T08:00:42;1.63;;;1.53;;
9280;SDS011;4679;47.966;7.958;2023-04-10T08:02:44;1.40;;;1.30;;
9280;SDS011;4679;47.966;7.958;2023-04-10T08:04:47;2.17;;;1.40;;
9280;SDS011;4679;47.966;7.958;2023-04-10T08:06:48;1.57;;;1.47;;
9280;SDS011;4679;47.966;7.958;2023-04-10T08:08:50;1.93;;;1.43;;
9280;SDS011;4679;47.966;7.958;2023-04-10T08:10:52;1.50;;;1.40;;
9280;SDS011;4679;47.966;7.958;2023-04-10T08:12:54;1.93;;;1.57;;
9280;SDS011;4679;47.966;7.958;2023-04-10T08:14:56;1.40;;;1.30;;
9280;SDS011;4679;47.966;7.958;2023-04-10T08:16:57;1.40;;;1.30;;
9280;SDS011;4679;47.966;7.958;2023-04-10T08:18:59;1.30;;;1.20;;
9280;SDS011;4679;47.966;7.958;2023-04-10T08:21:03;1.50;;;1.40;;
9280;SDS011;4679;47.966;7.958;2023-04-10T08:23:05;1.30;;;1.20;;
9280;SDS011;4679;47.966;7.958;2023-04-10T08:25:07;1.30;;;1.20;;
9280;SDS011;4679;47.966;7.958;2023-04-10T08:27:09;1.30;;;1.20;;
9280;SDS011;4679;47.966;7.958;2023-04-10T08:29:11;1.93;;;1.30;;
9280;SDS011;4679;47.966;7.958;2023-04-10T08:31:13;2.23;;;1.37;;
9280;SDS011;4679;47.966;7.958;2023-04-10T08:33:14;1.07;;;1.00;;
9280;SDS011;4679;47.966;7.958;2023-04-10T08:35:16;0.97;;;0.97;;
9280;SDS011;4679;47.966;7.958;2023-04-10T08:37:19;1.33;;;1.23;;
9280;SDS011;4679;47.966;7.958;2023-04-10T08:39:21;1.20;;;1.10;;
9280;SDS011;4679;47.966;7.958;2023-04-10T08:41:23;1.40;;;1.30;;
9280;SDS011;4679;47.966;7.958;2023-04-10T08:43:24;1.80;;;1.10;;
9280;SDS011;4679;47.966;7.958;2023-04-10T08:45:26;1.87;;;1.50;;
9280;SDS011;4679;47.966;7.958;2023-04-10T08:47:28;1.40;;;1.30;;
9280;SDS011;4679;47.966;7.958;2023-04-10T08:49:36;1.23;;;1.13;;
9280;SDS011;4679;47.966;7.958;2023-04-10T08:51:49;1.10;;;1.00;;
9280;SDS011;4679;47.966;7.958;2023-04-10T08:53:57;0.97;;;0.97;;
9280;SDS011;4679;47.966;7.958;2023-04-10T08:56:02;1.17;;;1.10;;
9280;SDS011;4679;47.966;7.958;2023-04-10T08:58:06;1.03;;;0.93;;
9280;SDS011;4679;47.966;7.958;2023-04-10T09:00:09;1.13;;;1.03;;
9280;SDS011;4679;47.966;7.958;2023-04-10T09:02:11;1.63;;;1.00;;
9280;SDS011;4679;47.966;7.958;2023-04-10T09:04:13;1.00;;;1.00;;
9280;SDS011;4679;47.966;7.958;2023-04-10T09:06:16;1.00;;;1.00;;
9280;SDS011;4679;47.966;7.958;2023-04-10T09:08:17;1.13;;;1.07;;
9280;SDS011;4679;47.966;7.958;2023-04-10T09:10:20;0.90;;;0.90;;
9280;SDS011;4679;47.966;7.958;2023-04-10T09:12:23;0.87;;;0.87;;
9280;SDS011;4679;47.966;7.958;2023-04-10T09:14:25;0.80;;;0.80;;
9280;SDS011;4679;47.966;7.958;2023-04-10T09:16:28;0.80;;;0.80;;
9280;SDS011;4679;47.966;7.958;2023-04-10T09:18:39;0.80;;;0.80;;
9280;SDS011;4679;47.966;7.958;2023-04-10T09:20:42;1.00;;;1.00;;
9280;SDS011;4679;47.966;7.958;2023-04-10T09:22:50;0.80;;;0.80;;
9280;SDS011;4679;47.966;7.958;2023-04-10T09:24:52;0.90;;;0.90;;
9280;SDS011;4679;47.966;7.958;2023-04-10T09:26:55;0.90;;;0.90;;
9280;SDS011;4679;47.966;7.958;2023-04-10T09:28:58;0.80;;;0.80;;
9280;SDS011;4679;47.966;7.958;2023-04-10T09:31:01;1.03;;;0.93;;
9280;SDS011;4679;47.966;7.958;2023-04-10T09:33:23;0.80;;;0.80;;
9280;SDS011;4679;47.966;7.958;2023-04-10T09:35:34;1.20;;;1.10;;
9280;SDS011;4679;47.966;7.958;2023-04-10T09:37:37;0.90;;;0.90;;
9280;SDS011;4679;47.966;7.958;2023-04-10T09:39:39;1.20;;;1.10;;
9280;SDS011;4679;47.966;7.958;2023-04-10T09:41:48;0.90;;;0.90;;
9280;SDS011;4679;47.966;7.958;2023-04-10T09:43:56;1.77;;;0.93;;
9280;SDS011;4679;47.966;7.958;2023-04-10T09:46:06;0.80;;;0.80;;
9280;SDS011;4679;47.966;7.958;2023-04-10T09:48:08;1.20;;;1.10;;
9280;SDS011;4679;47.966;7.958;2023-04-10T09:50:10;1.07;;;0.97;;
9280;SDS011;4679;47.966;7.958;2023-04-10T09:52:16;1.00;;;1.00;;
9280;SDS011;4679;47.966;7.958;2023-04-10T09:54:18;0.80;;;0.80;;
9280;SDS011;4679;47.966;7.958;2023-04-10T09:56:37;0.80;;;0.80;;
9280;SDS011;4679;47.966;7.958;2023-04-10T09:58:39;0.87;;;0.80;;
9280;SDS011;4679;47.966;7.958;2023-04-10T10:00:43;1.17;;;1.03;;
9280;SDS011;4679;47.966;7.958;2023-04-10T10:02:46;1.33;;;0.93;;
9280;SDS011;4679;47.966;7.958;2023-04-10T10:04:49;1.20;;;1.10;;
9280;SDS011;4679;47.966;7.958;2023-04-10T10:06:52;1.27;;;1.17;;
9280;SDS011;4679;47.966;7.958;2023-04-10T10:08:54;5.40;;;0.97;;
9280;SDS011;4679;47.966;7.958;2023-04-10T10:10:56;1.00;;;1.00;;
9280;SDS011;4679;47.966;7.958;2023-04-10T10:13:01;1.60;;;1.20;;
9280;SDS011;4679;47.966;7.958;2023-04-10T10:15:04;2.40;;;1.50;;
9280;SDS011;4679;47.966;7.958;2023-04-10T10:17:14;1.20;;;1.10;;
9280;SDS011;4679;47.966;7.958;2023-04-10T10:19:20;1.10;;;1.03;;
9280;SDS011;4679;47.966;7.958;2023-04-10T10:21:27;1.10;;;1.00;;
9280;SDS011;4679;47.966;7.958;2023-04-10T10:23:33;1.20;;;1.10;;
9280;SDS011;4679;47.966;7.958;2023-04-10T10:25:35;1.20;;;1.10;;
9280;SDS011;4679;47.966;7.958;2023-04-10T10:27:39;1.30;;;1.20;;
9280;SDS011;4679;47.966;7.958;2023-04-10T10:29:42;1.20;;;1.10;;
9280;SDS011;4679;47.966;7.958;2023-04-10T10:31:46;0.90;;;0.90;;
9280;SDS011;4679;47.966;7.958;2023-04-10T10:33:50;0.80;;;0.80;;
9280;SDS011;4679;47.966;7.958;2023-04-10T10:35:52;1.00;;;1.00;;
9280;SDS011;4679;47.966;7.958;2023-04-10T10:37:57;0.87;;;0.87;;
9280;SDS011;4679;47.966;7.958;2023-04-10T10:40:00;0.90;;;0.90;;
9280;SDS011;4679;47.966;7.958;2023-04-10T10:42:08;0.90;;;0.90;;
9280;SDS011;4679;47.966;7.958;2023-04-10T10:44:18;1.20;;;0.97;;
9280;SDS011;4679;47.966;7.958;2023-04-10T10:46:26;1.20;;;1.10;;
9280;SDS011;4679;47.966;7.958;2023-04-10T10:48:35;0.80;;;0.80;;
9280;SDS011;4679;47.966;7.958;2023-04-10T10:50:51;0.93;;;0.93;;
9280;SDS011;4679;47.966;7.958;2023-04-10T10:52:56;0.90;;;0.90;;
9280;SDS011;4679;47.966;7.958;2023-04-10T10:54:57;1.10;;;1.00;;
9280;SDS011;4679;47.966;7.958;2023-04-10T10:57:00;1.10;;;1.10;;
9280;SDS011;4679;47.966;7.958;2023-04-10T10:59:06;1.00;;;1.00;;
9280;SDS011;4679;47.966;7.958;2023-04-10T11:01:08;1.30;;;1.23;;
9280;SDS011;4679;47.966;7.958;2023-04-10T11:03:25;0.93;;;0.93;;
9280;SDS011;4679;47.966;7.958;2023-04-10T11:08:07;1.60;;;1.50;;
9280;SDS011;4679;47.966;7.958;2023-04-10T11:10:09;1.37;;;1.27;;
9280;SDS011;4679;47.966;7.958;2023-04-10T11:12:11;1.37;;;1.00;;
9280;SDS011;4679;47.966;7.958;2023-04-10T11:14:12;1.50;;;1.40;;
9280;SDS011;4679;47.966;7.958;2023-04-10T11:16:17;1.37;;;1.27;;
9280;SDS011;4679;47.966;7.958;2023-04-10T11:18:20;1.30;;;1.20;;
9280;SDS011;4679;47.966;7.958;2023-04-10T11:21:08;2.30;;;1.33;;
9280;SDS011;4679;47.966;7.958;2023-04-10T11:23:11;1.30;;;1.20;;
9280;SDS011;4679;47.966;7.958;2023-04-10T11:25:13;1.37;;;1.27;;
9280;SDS011;4679;47.966;7.958;2023-04-10T11:29:37;1.70;;;1.60;;
9280;SDS011;4679;47.966;7.958;2023-04-10T11:31:40;1.30;;;1.20;;
9280;SDS011;4679;47.966;7.958;2023-04-10T11:33:41;1.47;;;1.30;;
9280;SDS011;4679;47.966;7.958;2023-04-10T11:35:44;1.77;;;1.37;;
9280;SDS011;4679;47.966;7.958;2023-04-10T11:37:47;1.47;;;1.37;;
9280;SDS011;4679;47.966;7.958;2023-04-10T11:40:01;2.17;;;1.50;;
9280;SDS011;4679;47.966;7.958;2023-04-10T11:42:04;1.60;;;1.50;;
9280;SDS011;4679;47.966;7.958;2023-04-10T11:44:06;1.70;;;1.60;;
9280;SDS011;4679;47.966;7.958;2023-04-10T11:46:09;1.60;;;1.50;;
9280;SDS011;4679;47.966;7.958;2023-04-10T11:48:11;1.80;;;1.70;;
9280;SDS011;4679;47.966;7.958;2023-04-10T11:50:12;1.90;;;1.80;;
9280;SDS011;4679;47.966;7.958;2023-04-10T11:52:23;2.00;;;1.90;;
9280;SDS011;4679;47.966;7.958;2023-04-10T11:54:27;1.53;;;1.43;;
9280;SDS011;4679;47.966;7.958;2023-04-10T11:56:29;2.10;;;1.90;;
9280;SDS011;4679;47.966;7.958;2023-04-10T11:58:31;1.93;;;1.83;;
9280;SDS011;4679;47.966;7.958;2023-04-10T12:00:33;1.73;;;1.63;;
9280;SDS011;4679;47.966;7.958;2023-04-10T12:02:34;1.60;;;1.50;;
9280;SDS011;4679;47.966;7.958;2023-04-10T12:04:56;1.77;;;1.67;;
9280;SDS011;4679;47.966;7.958;2023-04-10T12:06:58;2.00;;;1.53;;
9280;SDS011;4679;47.966;7.958;2023-04-10T12:09:00;2.40;;;1.70;;
9280;SDS011;4679;47.966;7.958;2023-04-10T12:11:16;1.67;;;1.40;;
9280;SDS011;4679;47.966;7.958;2023-04-10T12:13:23;1.70;;;1.60;;
9280;SDS011;4679;47.966;7.958;2023-04-10T12:15:26;1.40;;;1.30;;
9280;SDS011;4679;47.966;7.958;2023-04-10T12:17:28;1.60;;;1.50;;
9280;SDS011;4679;47.966;7.958;2023-04-10T12:19:31;1.27;;;1.17;;
9280;SDS011;4679;47.966;7.958;2023-04-10T12:21:34;1.37;;;1.27;;
9280;SDS011;4679;47.966;7.958;2023-04-10T12:23:36;1.40;;;1.30;;
9280;SDS011;4679;47.966;7.958;2023-04-10T12:27:46;1.50;;;1.40;;
9280;SDS011;4679;47.966;7.958;2023-04-10T12:29:49;1.40;;;1.30;;
9280;SDS011;4679;47.966;7.958;2023-04-10T12:31:52;1.47;;;1.37;;
9280;SDS011;4679;47.966;7.958;2023-04-10T12:33:54;1.47;;;1.37;;
9280;SDS011;4679;47.966;7.958;2023-04-10T12:35:57;1.23;;;1.13;;
9280;SDS011;4679;47.966;7.958;2023-04-10T12:37:59;2.80;;;1.40;;
9280;SDS011;4679;47.966;7.958;2023-04-10T12:40:04;1.53;;;1.43;;
9280;SDS011;4679;47.966;7.958;2023-04-10T12:42:09;1.70;;;1.60;;
9280;SDS011;4679;47.966;7.958;2023-04-10T12:44:14;1.50;;;1.40;;
9280;SDS011;4679;47.966;7.958;2023-04-10T12:46:22;2.00;;;1.40;;
9280;SDS011;4679;47.966;7.958;2023-04-10T12:48:25;1.40;;;1.30;;
9280;SDS011;4679;47.966;7.958;2023-04-10T12:50:26;1.30;;;1.20;;
9280;SDS011;4679;47.966;7.958;2023-04-10T12:52:28;1.30;;;1.20;;
9280;SDS011;4679;47.966;7.958;2023-04-10T12:54:30;1.40;;;1.30;;
9280;SDS011;4679;47.966;7.958;2023-04-10T12:56:39;1.30;;;1.20;;
9280;SDS011;4679;47.966;7.958;2023-04-10T12:58:41;1.50;;;1.40;;
9280;SDS011;4679;47.966;7.958;2023-04-10T13:00:45;1.27;;;1.20;;
9280;SDS011;4679;47.966;7.958;2023-04-10T13:02:47;1.20;;;1.10;;
9280;SDS011;4679;47.966;7.958;2023-04-10T13:04:49;1.33;;;1.10;;
9280;SDS011;4679;47.966;7.958;2023-04-10T13:06:51;1.43;;;1.33;;
9280;SDS011;4679;47.966;7.958;2023-04-10T13:08:52;1.33;;;1.23;;
9280;SDS011;4679;47.966;7.958;2023-04-10T13:10:55;3.20;;;1.20;;
9280;SDS011;4679;47.966;7.958;2023-04-10T13:13:02;1.83;;;1.30;;
9280;SDS011;4679;47.966;7.958;2023-04-10T13:15:04;1.30;;;1.20;;
9280;SDS011;4679;47.966;7.958;2023-04-10T13:17:07;1.30;;;1.20;;
9280;SDS011;4679;47.966;7.958;2023-04-10T13:19:09;1.17;;;1.17;;
9280;SDS011;4679;47.966;7.958;2023-04-10T13:21:12;1.23;;;1.13;;
9280;SDS011;4679;47.966;7.958;2023-04-10T13:23:17;1.37;;;1.37;;
9280;SDS011;4679;47.966;7.958;2023-04-10T13:25:19;1.60;;;1.37;;
9280;SDS011;4679;47.966;7.958;2023-04-10T13:27:21;0.90;;;0.90;;
9280;SDS011;4679;47.966;7.958;2023-04-10T13:29:23;0.90;;;0.90;;
9280;SDS011;4679;47.966;7.958;2023-04-10T13:31:25;1.10;;;1.00;;
9280;SDS011;4679;47.966;7.958;2023-04-10T13:33:28;0.80;;;0.80;;
9280;SDS011;4679;47.966;7.958;2023-04-10T13:35:30;1.03;;;1.00;;
9280;SDS011;4679;47.966;7.958;2023-04-10T13:37:32;1.03;;;1.00;;
9280;SDS011;4679;47.966;7.958;2023-04-10T13:39:33;0.60;;;0.60;;
9280;SDS011;4679;47.966;7.958;2023-04-10T13:41:35;0.73;;;0.73;;
9280;SDS011;4679;47.966;7.958;2023-04-10T13:43:37;0.73;;;0.73;;
9280;SDS011;4679;47.966;7.958;2023-04-10T13:45:39;1.17;;;0.70;;
9280;SDS011;4679;47.966;7.958;2023-04-10T13:47:41;0.70;;;0.70;;
9280;SDS011;4679;47.966;7.958;2023-04-10T13:49:45;0.67;;;0.67;;
9280;SDS011;4679;47.966;7.958;2023-04-10T13:51:46;0.50;;;0.50;;
9280;SDS011;4679;47.966;7.958;2023-04-10T13:53:48;1.63;;;0.60;;
9280;SDS011;4679;47.966;7.958;2023-04-10T13:55:50;0.50;;;0.50;;
9280;SDS011;4679;47.966;7.958;2023-04-10T13:57:51;1.07;;;0.50;;
9280;SDS011;4679;47.966;7.958;2023-04-10T13:59:53;0.50;;;0.50;;
9280;SDS011;4679;47.966;7.958;2023-04-10T14:01:55;0.33;;;0.33;;
9280;SDS011;4679;47.966;7.958;2023-04-10T14:03:56;0.40;;;0.40;;
9280;SDS011;4679;47.966;7.958;2023-04-10T14:05:59;0.57;;;0.40;;
9280;SDS011;4679;47.966;7.958;2023-04-10T14:08:01;0.40;;;0.40;;
9280;SDS011;4679;47.966;7.958;2023-04-10T14:10:03;0.40;;;0.40;;
9280;SDS011;4679;47.966;7.958;2023-04-10T14:12:05;0.40;;;0.40;;
9280;SDS011;4679;47.966;7.958;2023-04-10T14:14:07;0.83;;;0.40;;
9280;SDS011;4679;47.966;7.958;2023-04-10T14:16:09;0.40;;;0.40;;
9280;SDS011;4679;47.966;7.958;2023-04-10T14:18:11;0.40;;;0.40;;
9280;SDS011;4679;47.966;7.958;2023-04-10T14:20:14;0.60;;;0.60;;
9280;SDS011;4679;47.966;7.958;2023-04-10T14:22:16;0.40;;;0.40;;
9280;SDS011;4679;47.966;7.958;2023-04-10T14:24:18;0.50;;;0.50;;
9280;SDS011;4679;47.966;7.958;2023-04-10T14:26:20;0.40;;;0.40;;
9280;SDS011;4679;47.966;7.958;2023-04-10T14:28:22;0.50;;;0.50;;
9280;SDS011;4679;47.966;7.958;2023-04-10T14:30:24;0.43;;;0.43;;
9280;SDS011;4679;47.966;7.958;2023-04-10T14:32:29;0.53;;;0.53;;
9280;SDS011;4679;47.966;7.958;2023-04-10T14:34:31;0.47;;;0.47;;
9280;SDS011;4679;47.966;7.958;2023-04-10T14:36:33;0.63;;;0.60;;
9280;SDS011;4679;47.966;7.958;2023-04-10T14:38:36;0.50;;;0.50;;
9280;SDS011;4679;47.966;7.958;2023-04-10T14:40:37;0.63;;;0.63;;
9280;SDS011;4679;47.966;7.958;2023-04-10T14:42:39;0.97;;;0.90;;
9280;SDS011;4679;47.966;7.958;2023-04-10T14:44:41;0.70;;;0.70;;
9280;SDS011;4679;47.966;7.958;2023-04-10T14:46:43;1.63;;;0.60;;
9280;SDS011;4679;47.966;7.958;2023-04-10T14:48:45;0.90;;;0.90;;
9280;SDS011;4679;47.966;7.958;2023-04-10T14:50:46;0.80;;;0.70;;
9280;SDS011;4679;47.966;7.958;2023-04-10T14:52:49;0.80;;;0.80;;
9280;SDS011;4679;47.966;7.958;2023-04-10T14:54:52;1.00;;;0.80;;
9280;SDS011;4679;47.966;7.958;2023-04-10T14:56:54;1.43;;;1.00;;
9280;SDS011;4679;47.966;7.958;2023-04-10T14:58:56;1.73;;;1.00;;
9280;SDS011;4679;47.966;7.958;2023-04-10T15:00:57;1.00;;;1.00;;
9280;SDS011;4679;47.966;7.958;2023-04-10T15:02:59;0.93;;;0.93;;
9280;SDS011;4679;47.966;7.958;2023-04-10T15:05:01;1.03;;;1.03;;
9280;SDS011;4679;47.966;7.958;2023-04-10T15:07:03;1.70;;;0.90;;
9280;SDS011;4679;47.966;7.958;2023-04-10T15:09:04;1.00;;;1.00;;
9280;SDS011;4679;47.966;7.958;2023-04-10T15:11:07;0.90;;;0.90;;
9280;SDS011;4679;47.966;7.958;2023-04-10T15:13:09;1.63;;;0.90;;
9280;SDS011;4679;47.966;7.958;2023-04-10T15:15:10;1.10;;;1.10;;
9280;SDS011;4679;47.966;7.958;2023-04-10T15:17:12;0.93;;;0.93;;
9280;SDS011;4679;47.966;7.958;2023-04-10T15:19:14;1.30;;;0.90;;
9280;SDS011;4679;47.966;7.958;2023-04-10T15:21:15;1.00;;;1.00;;
9280;SDS011;4679;47.966;7.958;2023-04-10T15:23:17;1.27;;;1.00;;
9280;SDS011;4679;47.966;7.958;2023-04-10T15:25:19;2.00;;;1.30;;
9280;SDS011;4679;47.966;7.958;2023-04-10T15:27:22;1.00;;;1.00;;
9280;SDS011;4679;47.966;7.958;2023-04-10T15:29:24;1.03;;;1.03;;
9280;SDS011;4679;47.966;7.958;2023-04-10T15:31:25;1.13;;;1.13;;
9280;SDS011;4679;47.966;7.958;2023-04-10T15:33:27;1.17;;;1.10;;
9280;SDS011;4679;47.966;7.958;2023-04-10T15:35:28;0.97;;;0.97;;
9280;SDS011;4679;47.966;7.958;2023-04-10T15:37:35;1.10;;;1.10;;
9280;SDS011;4679;47.966;7.958;2023-04-10T15:39:37;1.30;;;1.20;;
9280;SDS011;4679;47.966;7.958;2023-04-10T15:41:38;1.20;;;0.80;;
9280;SDS011;4679;47.966;7.958;2023-04-10T15:43:41;3.50;;;1.10;;
9280;SDS011;4679;47.966;7.958;2023-04-10T15:45:43;1.07;;;1.07;;
9280;SDS011;4679;47.966;7.958;2023-04-10T15:47:45;0.90;;;0.90;;
9280;SDS011;4679;47.966;7.958;2023-04-10T15:49:48;0.83;;;0.83;;
9280;SDS011;4679;47.966;7.958;2023-04-10T15:51:49;1.00;;;0.90;;
9280;SDS011;4679;47.966;7.958;2023-04-10T15:53:53;1.00;;;1.00;;
9280;SDS011;4679;47.966;7.958;2023-04-10T15:55:54;0.90;;;0.90;;
9280;SDS011;4679;47.966;7.958;2023-04-10T15:57:56;1.10;;;1.00;;
9280;SDS011;4679;47.966;7.958;2023-04-10T15:59:59;0.90;;;0.90;;
9280;SDS011;4679;47.966;7.958;2023-04-10T16:02:01;1.10;;;1.00;;
9280;SDS011;4679;47.966;7.958;2023-04-10T16:04:02;0.93;;;0.93;;
9280;SDS011;4679;47.966;7.958;2023-04-10T16:06:04;1.13;;;1.00;;
9280;SDS011;4679;47.966;7.958;2023-04-10T16:08:07;1.10;;;1.10;;
9280;SDS011;4679;47.966;7.958;2023-04-10T16:10:09;1.07;;;1.03;;
9280;SDS011;4679;47.966;7.958;2023-04-10T16:12:11;1.27;;;1.10;;
9280;SDS011;4679;47.966;7.958;2023-04-10T16:14:13;1.00;;;1.00;;
9280;SDS011;4679;47.966;7.958;2023-04-10T16:16:16;1.30;;;1.20;;
9280;SDS011;4679;47.966;7.958;2023-04-10T16:18:18;0.90;;;0.90;;
9280;SDS011;4679;47.966;7.958;2023-04-10T16:20:19;1.17;;;0.97;;
9280;SDS011;4679;47.966;7.958;2023-04-10T16:22:21;1.40;;;1.10;;
9280;SDS011;4679;47.966;7.958;2023-04-10T16:24:24;1.00;;;1.00;;
9280;SDS011;4679;47.966;7.958;2023-04-10T16:26:25;1.00;;;1.00;;
9280;SDS011;4679;47.966;7.958;2023-04-10T16:28:27;1.10;;;1.10;;
9280;SDS011;4679;47.966;7.958;2023-04-10T16:30:29;1.30;;;1.20;;
9280;SDS011;4679;47.966;7.958;2023-04-10T16:34:34;1.00;;;1.00;;
9280;SDS011;4679;47.966;7.958;2023-04-10T16:36:36;0.90;;;0.90;;
9280;SDS011;4679;47.966;7.958;2023-04-10T16:38:38;1.20;;;1.10;;
9280;SDS011;4679;47.966;7.958;2023-04-10T16:40:40;1.07;;;1.07;;
9280;SDS011;4679;47.966;7.958;2023-04-10T16:42:41;1.93;;;1.00;;
9280;SDS011;4679;47.966;7.958;2023-04-10T16:44:43;1.20;;;1.20;;
9280;SDS011;4679;47.966;7.958;2023-04-10T16:46:44;1.17;;;1.07;;
9280;SDS011;4679;47.966;7.958;2023-04-10T16:48:47;0.97;;;0.97;;
9280;SDS011;4679;47.966;7.958;2023-04-10T16:50:51;0.90;;;0.90;;
9280;SDS011;4679;47.966;7.958;2023-04-10T16:52:52;1.20;;;1.10;;
9280;SDS011;4679;47.966;7.958;2023-04-10T16:54:54;1.10;;;1.00;;
9280;SDS011;4679;47.966;7.958;2023-04-10T16:56:56;1.00;;;1.00;;
9280;SDS011;4679;47.966;7.958;2023-04-10T16:58:57;1.83;;;1.00;;
9280;SDS011;4679;47.966;7.958;2023-04-10T17:00:59;1.50;;;1.13;;
9280;SDS011;4679;47.966;7.958;2023-04-10T17:03:01;0.90;;;0.90;;
9280;SDS011;4679;47.966;7.958;2023-04-10T17:05:04;1.63;;;1.10;;
9280;SDS011;4679;47.966;7.958;2023-04-10T17:07:06;1.13;;;1.00;;
9280;SDS011;4679;47.966;7.958;2023-04-10T17:09:08;1.10;;;1.10;;
9280;SDS011;4679;47.966;7.958;2023-04-10T17:11:10;0.83;;;0.83;;
9280;SDS011;4679;47.966;7.958;2023-04-10T17:13:12;1.33;;;1.23;;
9280;SDS011;4679;47.966;7.958;2023-04-10T17:15:14;1.10;;;1.07;;
9280;SDS011;4679;47.966;7.958;2023-04-10T17:17:16;1.20;;;1.10;;
9280;SDS011;4679;47.966;7.958;2023-04-10T17:19:18;1.20;;;1.10;;
9280;SDS011;4679;47.966;7.958;2023-04-10T17:21:21;1.87;;;1.00;;
9280;SDS011;4679;47.966;7.958;2023-04-10T17:23:22;1.57;;;1.40;;
9280;SDS011;4679;47.966;7.958;2023-04-10T17:25:24;1.10;;;1.00;;
9280;SDS011;4679;47.966;7.958;2023-04-10T17:27:26;1.00;;;0.97;;
9280;SDS011;4679;47.966;7.958;2023-04-10T17:29:27;1.30;;;1.20;;
9280;SDS011;4679;47.966;7.958;2023-04-10T17:31:29;1.30;;;1.03;;
9280;SDS011;4679;47.966;7.958;2023-04-10T17:33:31;1.40;;;1.20;;
9280;SDS011;4679;47.966;7.958;2023-04-10T17:35:32;1.93;;;1.30;;
9280;SDS011;4679;47.966;7.958;2023-04-10T17:37:35;1.40;;;1.30;;
9280;SDS011;4679;47.966;7.958;2023-04-10T17:39:37;1.20;;;1.10;;
9280;SDS011;4679;47.966;7.958;2023-04-10T17:41:39;1.20;;;1.10;;
9280;SDS011;4679;47.966;7.958;2023-04-10T17:43:40;0.90;;;0.90;;
9280;SDS011;4679;47.966;7.958;2023-04-10T17:45:42;1.47;;;1.37;;
9280;SDS011;4679;47.966;7.958;2023-04-10T17:47:43;1.13;;;1.03;;
9280;SDS011;4679;47.966;7.958;2023-04-10T17:49:45;1.50;;;1.40;;
9280;SDS011;4679;47.966;7.958;2023-04-10T17:51:47;1.37;;;1.27;;
9280;SDS011;4679;47.966;7.958;2023-04-10T17:53:50;1.03;;;1.03;;
9280;SDS011;4679;47.966;7.958;2023-04-10T17:55:52;1.17;;;1.10;;
9280;SDS011;4679;47.966;7.958;2023-04-10T17:57:55;1.40;;;1.30;;
9280;SDS011;4679;47.966;7.958;2023-04-10T17:59:57;1.93;;;1.00;;
9280;SDS011;4679;47.966;7.958;2023-04-10T18:01:59;1.33;;;1.23;;
9280;SDS011;4679;47.966;7.958;2023-04-10T18:04:02;1.43;;;1.10;;
9280;SDS011;4679;47.966;7.958;2023-04-10T18:06:03;1.30;;;1.20;;
9280;SDS011;4679;47.966;7.958;2023-04-10T18:08:06;1.00;;;1.00;;
9280;SDS011;4679;47.966;7.958;2023-04-10T18:10:09;1.00;;;0.90;;
9280;SDS011;4679;47.966;7.958;2023-04-10T18:12:11;0.90;;;0.90;;
9280;SDS011;4679;47.966;7.958;2023-04-10T18:14:13;1.00;;;1.00;;
9280;SDS011;4679;47.966;7.958;2023-04-10T18:16:15;0.80;;;0.80;;
9280;SDS011;4679;47.966;7.958;2023-04-10T18:18:17;0.83;;;0.83;;
9280;SDS011;4679;47.966;7.958;2023-04-10T18:20:19;2.23;;;1.23;;
9280;SDS011;4679;47.966;7.958;2023-04-10T18:22:21;1.13;;;1.03;;
9280;SDS011;4679;47.966;7.958;2023-04-10T18:24:23;1.10;;;1.00;;
9280;SDS011;4679;47.966;7.958;2023-04-10T18:26:28;1.93;;;1.20;;
9280;SDS011;4679;47.966;7.958;2023-04-10T18:28:30;1.10;;;1.10;;
9280;SDS011;4679;47.966;7.958;2023-04-10T18:30:32;1.17;;;1.10;;
9280;SDS011;4679;47.966;7.958;2023-04-10T18:32:37;1.20;;;1.10;;
9280;SDS011;4679;47.966;7.958;2023-04-10T18:34:39;1.03;;;0.93;;
9280;SDS011;4679;47.966;7.958;2023-04-10T18:36:41;2.20;;;1.17;;
9280;SDS011;4679;47.966;7.958;2023-04-10T18:38:42;1.70;;;1.43;;
9280;SDS011;4679;47.966;7.958;2023-04-10T18:40:44;2.30;;;1.40;;
9280;SDS011;4679;47.966;7.958;2023-04-10T18:42:47;1.10;;;1.03;;
9280;SDS011;4679;47.966;7.958;2023-04-10T18:44:49;1.27;;;1.00;;
9280;SDS011;4679;47.966;7.958;2023-04-10T18:46:51;1.00;;;0.90;;
9280;SDS011;4679;47.966;7.958;2023-04-10T18:48:52;1.00;;;0.80;;
9280;SDS011;4679;47.966;7.958;2023-04-10T18:50:55;1.73;;;1.00;;
9280;SDS011;4679;47.966;7.958;2023-04-10T18:52:57;1.20;;;1.10;;
9280;SDS011;4679;47.966;7.958;2023-04-10T18:54:58;0.77;;;0.77;;
9280;SDS011;4679;47.966;7.958;2023-04-10T18:57:00;0.77;;;0.63;;
9280;SDS011;4679;47.966;7.958;2023-04-10T18:59:04;0.63;;;0.63;;
9280;SDS011;4679;47.966;7.958;2023-04-10T19:01:05;1.07;;;0.93;;
9280;SDS011;4679;47.966;7.958;2023-04-10T19:03:09;0.70;;;0.70;;
9280;SDS011;4679;47.966;7.958;2023-04-10T19:05:12;0.83;;;0.77;;